createdAt,value
2019-05-25T00:00:00.041Z,4.30
2019-05-25T00:02:33.270Z,3.60
2019-05-25T00:05:07.265Z,4.50
2019-05-25T00:07:40.782Z,4.50
2019-05-25T00:10:14.680Z,4.17
2019-05-25T00:12:48.190Z,4.42
2019-05-25T00:15:21.350Z,3.67
2019-05-25T00:17:55.376Z,3.85
2019-05-25T00:20:28.591Z,4.25
2019-05-25T00:23:02.883Z,4.15
2019-05-25T00:25:36.039Z,3.67
2019-05-25T00:28:09.266Z,3.90
2019-05-25T00:30:42.549Z,4.12
2019-05-25T00:33:15.649Z,3.80
2019-05-25T00:35:48.822Z,4.80
2019-05-25T00:38:22.301Z,3.72
2019-05-25T00:40:55.404Z,4.00
2019-05-25T00:43:29.586Z,3.95
2019-05-25T00:46:02.830Z,3.77
2019-05-25T00:48:36.227Z,3.55
2019-05-25T00:51:09.549Z,3.20
2019-05-25T00:53:42.943Z,3.95
2019-05-25T00:56:16.314Z,3.95
2019-05-25T00:58:49.495Z,3.75
2019-05-25T01:01:24.502Z,3.90
2019-05-25T01:03:58.126Z,4.03
2019-05-25T01:06:31.436Z,3.98
2019-05-25T01:09:05.843Z,4.35
2019-05-25T01:11:39.066Z,3.75
2019-05-25T01:14:12.561Z,3.27
2019-05-25T01:16:45.890Z,3.83
2019-05-25T01:19:19.219Z,3.83
2019-05-25T01:21:52.371Z,4.30
2019-05-25T01:24:25.408Z,3.75
2019-05-25T01:26:58.819Z,3.40
2019-05-25T01:29:31.987Z,4.17
2019-05-25T01:32:05.409Z,3.50
2019-05-25T01:34:38.819Z,3.77
2019-05-25T01:37:12.328Z,3.98
2019-05-25T01:39:45.578Z,3.67
2019-05-25T01:42:18.901Z,3.62
2019-05-25T01:44:52.093Z,3.55
2019-05-25T01:47:25.453Z,3.98
2019-05-25T01:49:58.595Z,3.55
2019-05-25T01:52:31.860Z,3.33
2019-05-25T01:55:05.367Z,3.60
2019-05-25T01:57:39.766Z,3.42
2019-05-25T02:00:13.571Z,3.52
2019-05-25T02:02:46.985Z,3.25
2019-05-25T02:05:20.283Z,3.65
2019-05-25T02:07:53.452Z,3.22
2019-05-25T02:10:28.981Z,3.08
2019-05-25T02:13:02.092Z,3.27
2019-05-25T02:15:35.519Z,2.85
2019-05-25T02:18:08.813Z,2.90
2019-05-25T02:20:42.016Z,3.00
2019-05-25T02:23:15.404Z,2.70
2019-05-25T02:25:48.699Z,3.45
2019-05-25T02:28:21.860Z,3.08
2019-05-25T02:30:55.154Z,2.98
2019-05-25T02:33:28.362Z,2.62
2019-05-25T02:36:01.903Z,3.02
2019-05-25T02:38:35.331Z,2.72
2019-05-25T02:41:08.545Z,3.67
2019-05-25T02:43:42.239Z,4.00
2019-05-25T02:46:15.557Z,3.37
2019-05-25T02:48:48.935Z,2.95
2019-05-25T02:51:22.263Z,2.42
2019-05-25T02:53:55.659Z,2.60
2019-05-25T02:56:28.853Z,2.95
2019-05-25T02:59:02.120Z,3.25
2019-05-25T03:01:35.643Z,2.75
2019-05-25T03:04:09.143Z,5.42
2019-05-25T03:06:43.337Z,2.75
2019-05-25T03:09:18.636Z,2.75
2019-05-25T03:11:53.791Z,3.02
2019-05-25T03:14:26.987Z,2.87
2019-05-25T03:17:00.506Z,2.70
2019-05-25T03:19:33.802Z,3.15
2019-05-25T03:22:07.045Z,2.58
2019-05-25T03:24:40.274Z,2.47
2019-05-25T03:27:13.720Z,2.45
2019-05-25T03:29:47.096Z,2.62
2019-05-25T03:32:20.745Z,2.83
2019-05-25T03:34:53.881Z,2.77
2019-05-25T03:37:27.056Z,2.12
2019-05-25T03:40:00.334Z,2.30
2019-05-25T03:42:33.666Z,2.58
2019-05-25T03:45:07.266Z,2.33
2019-05-25T03:47:40.679Z,3.65
2019-05-25T03:50:14.455Z,2.30
2019-05-25T03:52:48.062Z,2.62
2019-05-25T03:55:21.396Z,3.10
2019-05-25T03:57:54.736Z,2.58
2019-05-25T04:00:35.756Z,2.60
2019-05-25T04:03:09.431Z,2.95
2019-05-25T04:05:42.743Z,3.77
2019-05-25T04:08:15.815Z,3.00
2019-05-25T04:10:49.110Z,2.83
2019-05-25T04:13:22.189Z,2.62
2019-05-25T04:15:56.517Z,3.20
2019-05-25T04:18:30.307Z,3.15
2019-05-25T04:21:03.406Z,2.95
2019-05-25T04:23:36.618Z,3.35
2019-05-25T04:26:21.893Z,2.60
2019-05-25T04:28:44.799Z,3.05
2019-05-25T04:31:18.239Z,4.75
2019-05-25T04:33:51.398Z,3.08
2019-05-25T04:36:24.499Z,2.50
2019-05-25T04:38:57.668Z,2.95
2019-05-25T04:41:31.037Z,3.30
2019-05-25T04:44:04.269Z,4.37
2019-05-25T04:46:37.574Z,3.55
2019-05-25T04:49:10.978Z,3.90
2019-05-25T04:51:44.067Z,3.15
2019-05-25T04:54:17.078Z,2.70
2019-05-25T04:56:50.347Z,3.40
2019-05-25T04:59:23.255Z,3.70
2019-05-25T05:01:56.436Z,3.05
2019-05-25T05:04:29.979Z,4.05
2019-05-25T05:07:03.229Z,3.35
2019-05-25T05:09:36.273Z,4.37
2019-05-25T05:12:09.996Z,3.45
2019-05-25T05:14:43.100Z,3.90
2019-05-25T05:17:16.408Z,3.87
2019-05-25T05:19:49.607Z,2.70
2019-05-25T05:22:22.925Z,3.87
2019-05-25T05:24:56.172Z,3.72
2019-05-25T05:27:29.365Z,3.92
2019-05-25T05:30:03.842Z,3.08
2019-05-25T05:32:37.008Z,3.65
2019-05-25T05:35:10.730Z,3.30
2019-05-25T05:37:45.212Z,3.33
2019-05-25T05:40:18.591Z,3.02
2019-05-25T05:42:54.708Z,3.35
2019-05-25T05:45:29.707Z,3.00
2019-05-25T05:48:04.268Z,3.45
2019-05-25T05:50:39.987Z,3.45
2019-05-25T05:53:14.302Z,4.40
2019-05-25T05:55:47.738Z,3.72
2019-05-25T05:58:21.011Z,3.98
2019-05-25T06:00:54.086Z,3.85
2019-05-25T06:03:27.202Z,4.37
2019-05-25T06:06:00.335Z,3.90
2019-05-25T06:08:33.579Z,4.10
2019-05-25T06:11:06.942Z,3.80
2019-05-25T06:13:40.148Z,4.40
2019-05-25T06:16:13.514Z,3.75
2019-05-25T06:18:46.939Z,3.65
2019-05-25T06:21:20.068Z,5.62
2019-05-25T06:23:53.431Z,3.85
2019-05-25T06:26:26.573Z,4.00
2019-05-25T06:28:59.804Z,4.90
2019-05-25T06:31:33.081Z,3.60
2019-05-25T06:34:06.607Z,4.92
2019-05-25T06:36:39.767Z,4.53
2019-05-25T06:39:13.147Z,3.95
2019-05-25T06:41:46.375Z,4.47
2019-05-25T06:44:19.661Z,3.67
2019-05-25T06:46:53.156Z,3.77
2019-05-25T06:49:26.554Z,3.15
2019-05-25T06:51:59.956Z,3.58
2019-05-25T06:54:33.293Z,2.92
2019-05-25T06:57:06.635Z,3.33
2019-05-25T06:59:40.126Z,3.87
2019-05-25T07:02:13.541Z,3.45
2019-05-25T07:04:46.846Z,3.60
2019-05-25T07:07:19.909Z,5.35
2019-05-25T07:09:53.291Z,3.22
2019-05-25T07:12:26.611Z,2.92
2019-05-25T07:14:59.818Z,3.62
2019-05-25T07:17:32.968Z,3.02
2019-05-25T07:20:07.669Z,2.72
2019-05-25T07:22:41.027Z,3.77
2019-05-25T07:25:16.142Z,3.40
2019-05-25T07:27:58.832Z,2.50
2019-05-25T07:30:24.627Z,2.98
2019-05-25T07:32:57.887Z,2.77
2019-05-25T07:35:31.098Z,3.02
2019-05-25T07:38:04.340Z,3.00
2019-05-25T07:40:37.765Z,2.58
2019-05-25T07:43:11.062Z,3.50
2019-05-25T07:45:44.393Z,3.10
2019-05-25T07:48:18.687Z,2.65
2019-05-25T07:50:52.393Z,3.17
2019-05-25T07:53:25.580Z,3.35
2019-05-25T07:55:58.767Z,3.98
2019-05-25T07:58:32.187Z,2.95
2019-05-25T08:01:05.444Z,2.47
2019-05-25T08:03:39.892Z,3.45
2019-05-25T08:06:13.529Z,3.83
2019-05-25T08:08:46.798Z,4.58
2019-05-25T08:11:19.976Z,2.90
2019-05-25T08:13:53.267Z,2.55
2019-05-25T08:16:26.539Z,3.17
2019-05-25T08:18:59.770Z,2.70
2019-05-25T08:21:33.033Z,3.40
2019-05-25T08:24:06.462Z,3.42
2019-05-25T08:26:39.734Z,3.62
2019-05-25T08:29:13.053Z,2.98
2019-05-25T08:31:46.407Z,3.15
2019-05-25T08:34:19.815Z,3.45
2019-05-25T08:36:53.033Z,2.70
2019-05-25T08:39:27.232Z,3.27
2019-05-25T08:42:00.534Z,3.70
2019-05-25T08:44:34.027Z,3.85
2019-05-25T08:47:07.397Z,2.77
2019-05-25T08:49:40.809Z,3.30
2019-05-25T08:52:14.309Z,3.40
2019-05-25T08:54:47.741Z,2.83
2019-05-25T08:57:20.703Z,3.12
2019-05-25T08:59:54.186Z,5.65
2019-05-25T09:02:27.188Z,2.65
2019-05-25T09:05:00.209Z,2.77
2019-05-25T09:07:33.340Z,2.65
2019-05-25T09:10:07.120Z,3.85
2019-05-25T09:12:40.343Z,3.60
2019-05-25T09:15:14.182Z,3.65
2019-05-25T09:17:47.667Z,3.75
2019-05-25T09:20:21.111Z,3.12
2019-05-25T09:22:54.325Z,3.77
2019-05-25T09:25:27.530Z,3.70
2019-05-25T09:28:00.765Z,3.87
2019-05-25T09:30:33.915Z,3.50
2019-05-25T09:33:07.267Z,3.35
2019-05-25T09:35:42.551Z,4.50
2019-05-25T09:38:15.836Z,4.40
2019-05-25T09:40:49.072Z,3.95
2019-05-25T09:43:22.258Z,4.35
2019-05-25T09:45:55.381Z,3.42
2019-05-25T09:48:29.888Z,6.25
2019-05-25T09:51:03.407Z,4.35
2019-05-25T09:53:36.446Z,4.62
2019-05-25T09:56:09.461Z,5.08
2019-05-25T09:58:42.850Z,6.35
2019-05-25T10:01:16.030Z,5.33
2019-05-25T10:03:49.445Z,5.00
2019-05-25T10:06:22.798Z,5.28
2019-05-25T10:08:56.668Z,5.50
2019-05-25T10:11:29.930Z,5.62
2019-05-25T10:14:03.331Z,4.42
2019-05-25T10:16:36.617Z,4.80
2019-05-25T10:19:09.785Z,4.85
2019-05-25T10:21:42.984Z,5.53
2019-05-25T10:24:16.381Z,4.67
2019-05-25T10:26:49.691Z,6.72
2019-05-25T10:29:35.936Z,5.15
2019-05-25T10:31:57.640Z,6.08
2019-05-25T10:34:30.788Z,5.45
2019-05-25T10:37:04.182Z,5.00
2019-05-25T10:39:37.364Z,5.35
2019-05-25T10:42:10.695Z,5.55
2019-05-25T10:44:44.093Z,5.67
2019-05-25T10:47:17.176Z,6.08
2019-05-25T10:49:50.352Z,5.55
2019-05-25T10:52:23.751Z,5.90
2019-05-25T10:54:57.044Z,5.78
2019-05-25T10:57:30.272Z,5.95
2019-05-25T11:00:03.534Z,6.42
2019-05-25T11:02:36.840Z,6.33
2019-05-25T11:05:11.037Z,6.30
2019-05-25T11:07:44.340Z,6.37
2019-05-25T11:10:19.142Z,5.90
2019-05-25T11:12:52.566Z,5.33
2019-05-25T11:15:27.178Z,5.97
2019-05-25T11:18:00.517Z,5.50
2019-05-25T11:20:33.770Z,7.12
2019-05-25T11:23:07.194Z,6.17
2019-05-25T11:25:40.472Z,7.22
2019-05-25T11:28:14.713Z,5.92
2019-05-25T11:30:47.973Z,5.85
2019-05-25T11:33:21.820Z,6.17
2019-05-25T11:35:56.259Z,6.87
2019-05-25T11:38:30.535Z,6.65
2019-05-25T11:41:03.841Z,6.05
2019-05-25T11:43:37.255Z,5.60
2019-05-25T11:46:10.636Z,6.67
2019-05-25T11:48:43.945Z,6.03
2019-05-25T11:51:17.352Z,5.17
2019-05-25T11:53:50.769Z,6.03
2019-05-25T11:56:24.119Z,4.90
2019-05-25T11:58:57.452Z,6.45
2019-05-25T12:01:30.734Z,5.72
2019-05-25T12:04:04.012Z,6.22
2019-05-25T12:06:37.248Z,5.80
2019-05-25T12:09:11.162Z,6.00
2019-05-25T12:11:44.663Z,6.75
2019-05-25T12:14:18.565Z,6.05
2019-05-25T12:16:51.916Z,6.15
2019-05-25T12:19:25.280Z,6.40
2019-05-25T12:21:59.074Z,6.47
2019-05-25T12:24:32.466Z,5.35
2019-05-25T12:27:06.005Z,5.50
2019-05-25T12:29:39.904Z,5.87
2019-05-25T12:32:14.118Z,5.45
2019-05-25T12:34:47.458Z,5.80
2019-05-25T12:37:22.665Z,6.28
2019-05-25T12:39:56.636Z,5.72
2019-05-25T12:42:30.158Z,5.00
2019-05-25T12:45:03.843Z,6.10
2019-05-25T12:47:37.974Z,6.45
2019-05-25T12:50:11.348Z,6.15
2019-05-25T12:52:45.049Z,6.17
2019-05-25T12:55:18.257Z,6.72
2019-05-25T12:57:51.778Z,5.95
2019-05-25T13:00:24.986Z,5.87
2019-05-25T13:02:58.379Z,5.78
2019-05-25T13:05:34.455Z,6.33
2019-05-25T13:08:07.887Z,5.35
2019-05-25T13:10:41.207Z,5.00
2019-05-25T13:13:14.618Z,4.08
2019-05-25T13:15:48.010Z,4.55
2019-05-25T13:18:22.162Z,5.22
2019-05-25T13:20:55.514Z,3.95
2019-05-25T13:23:28.700Z,4.65
2019-05-25T13:26:02.270Z,4.60
2019-05-25T13:28:36.515Z,4.12
2019-05-25T13:31:11.947Z,4.37
2019-05-25T13:33:44.845Z,4.53
2019-05-25T13:36:18.125Z,4.33
2019-05-25T13:38:51.710Z,4.08
2019-05-25T13:41:24.817Z,4.08
2019-05-25T13:43:57.971Z,4.40
2019-05-25T13:46:31.187Z,5.37
2019-05-25T13:49:04.739Z,4.15
2019-05-25T13:51:38.291Z,3.35
2019-05-25T13:54:11.702Z,3.83
2019-05-25T13:56:44.991Z,3.75
2019-05-25T13:59:18.287Z,3.72
2019-05-25T14:01:51.573Z,4.83
2019-05-25T14:04:25.850Z,3.47
2019-05-25T14:06:59.062Z,3.37
2019-05-25T14:09:32.395Z,4.33
2019-05-25T14:12:05.891Z,3.70
2019-05-25T14:14:39.626Z,4.00
2019-05-25T14:17:12.790Z,5.03
2019-05-25T14:19:45.913Z,4.90
2019-05-25T14:22:19.370Z,4.28
2019-05-25T14:24:52.779Z,4.03
2019-05-25T14:27:26.203Z,4.78
2019-05-25T14:29:59.459Z,4.42
2019-05-25T14:32:32.659Z,4.72
2019-05-25T14:35:06.680Z,4.22
2019-05-25T14:37:39.977Z,4.35
2019-05-25T14:40:14.200Z,5.50
2019-05-25T14:42:47.270Z,5.30
2019-05-25T14:45:20.568Z,5.15
2019-05-25T14:47:53.971Z,26.77
2019-05-25T14:50:27.364Z,14.80
2019-05-25T14:53:00.445Z,4.83
2019-05-25T14:55:33.718Z,4.85
2019-05-25T14:58:07.132Z,4.95
2019-05-25T15:00:40.606Z,5.10
2019-05-25T15:03:14.015Z,5.75
2019-05-25T15:05:47.404Z,5.45
2019-05-25T15:08:20.648Z,5.08
2019-05-25T15:10:53.919Z,4.70
2019-05-25T15:13:27.232Z,4.75
2019-05-25T15:16:00.484Z,5.03
2019-05-25T15:18:33.902Z,5.05
2019-05-25T15:21:07.191Z,4.70
2019-05-25T15:23:40.384Z,4.90
2019-05-25T15:26:13.669Z,5.80
2019-05-25T15:28:46.920Z,4.65
2019-05-25T15:31:20.268Z,4.72
2019-05-25T15:33:53.405Z,4.75
2019-05-25T15:36:27.245Z,4.53
2019-05-25T15:39:00.552Z,5.03
2019-05-25T15:41:33.744Z,4.42
2019-05-25T15:44:06.942Z,4.80
2019-05-25T15:46:40.145Z,4.35
2019-05-25T15:49:13.536Z,4.12
2019-05-25T15:51:47.208Z,4.22
2019-05-25T15:54:20.484Z,5.53
2019-05-25T15:56:53.695Z,4.70
2019-05-25T15:59:26.814Z,4.92
2019-05-25T16:02:00.094Z,4.72
2019-05-25T16:04:33.448Z,24.70
2019-05-25T16:07:06.878Z,21.33
2019-05-25T16:09:41.248Z,5.37
2019-05-25T16:12:14.293Z,4.75
2019-05-25T16:14:47.751Z,5.60
2019-05-25T16:17:21.134Z,5.22
2019-05-25T16:19:54.493Z,5.12
2019-05-25T16:22:27.803Z,4.80
2019-05-25T16:25:01.131Z,5.22
2019-05-25T16:27:34.364Z,5.58
2019-05-25T16:30:07.963Z,4.90
2019-05-25T16:33:10.678Z,6.10
2019-05-25T16:35:17.131Z,5.65
2019-05-25T16:37:50.718Z,5.70
2019-05-25T16:40:23.967Z,6.22
2019-05-25T16:42:57.341Z,5.70
2019-05-25T16:45:30.613Z,4.92
2019-05-25T16:48:03.993Z,4.80
2019-05-25T16:50:37.401Z,4.70
2019-05-25T16:53:11.108Z,4.60
2019-05-25T16:55:45.190Z,4.95
2019-05-25T16:58:18.320Z,6.37
2019-05-25T17:00:52.524Z,5.95
2019-05-25T17:03:28.785Z,5.97
2019-05-25T17:06:00.545Z,4.95
2019-05-25T17:08:34.251Z,5.25
2019-05-25T17:11:08.594Z,5.12
2019-05-25T17:13:43.337Z,6.20
2019-05-25T17:16:16.669Z,5.87
2019-05-25T17:18:49.927Z,28.05
2019-05-25T17:21:23.309Z,6.90
2019-05-25T17:23:56.479Z,6.20
2019-05-25T17:26:29.599Z,5.90
2019-05-25T17:29:02.879Z,6.28
2019-05-25T17:31:35.952Z,6.28
2019-05-25T17:34:09.374Z,5.58
2019-05-25T17:36:42.845Z,6.10
2019-05-25T17:39:15.960Z,5.70
2019-05-25T17:41:49.345Z,5.95
2019-05-25T17:44:24.478Z,5.85
2019-05-25T17:46:57.994Z,6.45
2019-05-25T17:49:31.258Z,6.17
2019-05-25T17:52:04.760Z,7.78
2019-05-25T17:54:37.966Z,6.97
2019-05-25T17:57:11.591Z,6.92
2019-05-25T17:59:45.082Z,21.15
2019-05-25T18:02:18.379Z,9.78
2019-05-25T18:04:51.761Z,8.68
2019-05-25T18:07:25.315Z,8.25
2019-05-25T18:09:58.657Z,9.90
2019-05-25T18:12:32.026Z,8.95
2019-05-25T18:15:06.663Z,8.90
2019-05-25T18:17:39.970Z,9.63
2019-05-25T18:20:13.585Z,9.55
2019-05-25T18:22:46.961Z,10.60
2019-05-25T18:25:20.377Z,9.33
2019-05-25T18:27:53.725Z,9.48
2019-05-25T18:30:27.417Z,9.15
2019-05-25T18:33:00.438Z,10.38
2019-05-25T18:35:35.001Z,10.32
2019-05-25T18:38:08.001Z,9.73
2019-05-25T18:40:41.149Z,9.53
2019-05-25T18:43:14.468Z,9.43
2019-05-25T18:45:47.777Z,10.43
2019-05-25T18:48:21.244Z,10.32
2019-05-25T18:50:54.632Z,9.53
2019-05-25T18:53:27.978Z,10.53
2019-05-25T18:56:01.241Z,10.20
2019-05-25T18:58:34.821Z,9.88
2019-05-25T19:01:08.206Z,11.05
2019-05-25T19:03:41.612Z,9.60
2019-05-25T19:06:16.263Z,9.98
2019-05-25T19:08:49.649Z,10.20
2019-05-25T19:11:22.989Z,10.25
2019-05-25T19:13:56.441Z,10.53
2019-05-25T19:16:29.781Z,10.23
2019-05-25T19:19:03.110Z,10.58
2019-05-25T19:21:36.483Z,11.15
2019-05-25T19:24:10.406Z,10.90
2019-05-25T19:26:43.788Z,10.08
2019-05-25T19:29:17.258Z,10.25
2019-05-25T19:31:50.749Z,11.88
2019-05-25T19:34:23.889Z,10.30
2019-05-25T19:36:57.365Z,12.18
2019-05-25T19:39:31.520Z,12.95
2019-05-25T19:42:05.147Z,10.95
2019-05-25T19:44:39.626Z,12.00
2019-05-25T19:47:12.933Z,11.45
2019-05-25T19:49:46.223Z,11.68
2019-05-25T19:52:19.773Z,12.73
2019-05-25T19:54:53.223Z,12.65
2019-05-25T19:57:26.718Z,14.23
2019-05-25T20:00:00.678Z,12.10
2019-05-25T20:02:33.834Z,12.68
2019-05-25T20:05:16.256Z,12.10
2019-05-25T20:07:43.603Z,11.83
2019-05-25T20:10:17.307Z,11.97
2019-05-25T20:12:50.851Z,10.90
2019-05-25T20:15:24.181Z,12.05
2019-05-25T20:17:57.598Z,12.63
2019-05-25T20:20:31.081Z,13.32
2019-05-25T20:23:04.373Z,12.68
2019-05-25T20:25:37.684Z,20.82
2019-05-25T20:28:10.970Z,14.13
2019-05-25T20:30:44.517Z,13.22
2019-05-25T20:33:26.926Z,12.25
2019-05-25T20:35:52.603Z,43.55
2019-05-25T20:38:25.875Z,14.78
2019-05-25T20:40:58.992Z,12.40
2019-05-25T20:43:32.308Z,12.90
2019-05-25T20:46:05.785Z,12.20
2019-05-25T20:48:39.131Z,12.58
2019-05-25T20:51:12.178Z,12.55
2019-05-25T20:53:45.667Z,12.53
2019-05-25T20:56:18.928Z,11.57
2019-05-25T20:58:52.150Z,11.78
2019-05-25T21:01:25.572Z,13.62
2019-05-25T21:03:58.879Z,11.43
2019-05-25T21:06:32.235Z,12.05
2019-05-25T21:09:07.367Z,12.37
2019-05-25T21:11:40.687Z,12.65
2019-05-25T21:14:14.142Z,12.13
2019-05-25T21:16:47.501Z,12.50
2019-05-25T21:19:24.000Z,14.03
2019-05-25T21:21:57.256Z,11.73
2019-05-25T21:24:30.439Z,11.65
2019-05-25T21:27:04.031Z,12.73
2019-05-25T21:29:37.309Z,12.00
2019-05-25T21:32:11.738Z,12.15
2019-05-25T21:34:45.010Z,12.00
2019-05-25T21:37:20.573Z,12.25
2019-05-25T21:39:53.965Z,12.82
2019-05-25T21:42:27.257Z,12.98
2019-05-25T21:45:01.050Z,12.00
2019-05-25T21:47:34.305Z,11.90
2019-05-25T21:50:08.558Z,13.15
2019-05-25T21:52:41.996Z,13.35
2019-05-25T21:55:15.658Z,13.45
2019-05-25T21:57:49.922Z,12.37
2019-05-25T22:00:25.079Z,13.75
2019-05-25T22:03:00.675Z,12.68
2019-05-25T22:05:34.303Z,12.53
2019-05-25T22:08:07.605Z,15.20
2019-05-25T22:10:40.787Z,13.15
2019-05-25T22:13:26.806Z,13.15
2019-05-25T22:15:49.271Z,12.45
2019-05-25T22:18:22.688Z,14.38
2019-05-25T22:20:56.128Z,13.05
2019-05-25T22:23:29.481Z,12.43
2019-05-25T22:26:02.928Z,14.90
2019-05-25T22:28:44.868Z,13.35
2019-05-25T22:31:11.358Z,13.90
2019-05-25T22:33:44.763Z,13.88
2019-05-25T22:36:18.121Z,15.58
2019-05-25T22:38:51.488Z,15.28
2019-05-25T22:41:24.881Z,17.07
2019-05-25T22:43:58.350Z,16.25
2019-05-25T22:46:31.519Z,17.73
2019-05-25T22:49:04.686Z,17.98
2019-05-25T22:51:37.978Z,17.85
2019-05-25T22:54:11.202Z,17.85
2019-05-25T22:56:44.601Z,17.80
2019-05-25T22:59:17.561Z,17.87
2019-05-25T23:01:50.834Z,18.37
2019-05-25T23:04:24.393Z,18.75
2019-05-25T23:06:58.663Z,19.05
2019-05-25T23:09:32.087Z,19.40
2019-05-25T23:12:05.792Z,19.42
2019-05-25T23:14:39.187Z,18.10
2019-05-25T23:17:12.466Z,17.90
2019-05-25T23:19:45.548Z,19.17
2019-05-25T23:22:18.711Z,18.98
2019-05-25T23:24:52.149Z,16.70
2019-05-25T23:27:25.358Z,17.17
2019-05-25T23:29:59.641Z,16.35
2019-05-25T23:32:33.045Z,16.37
2019-05-25T23:35:06.373Z,16.70
2019-05-25T23:37:39.831Z,16.90
2019-05-25T23:40:13.038Z,17.37
2019-05-25T23:42:46.549Z,16.75
2019-05-25T23:45:20.139Z,17.25
2019-05-25T23:47:54.462Z,17.32
2019-05-25T23:50:27.834Z,17.15
2019-05-25T23:53:01.018Z,17.65
2019-05-25T23:55:34.339Z,16.87
2019-05-25T23:58:07.605Z,18.62
